Αρχική σελίδα
METAR-TAF:

METAR-TAF

Αεροδρόμια :

Ανταναναρίβο, Μαδαγασκάρη

γεωγραφικό πλάτος: 18-48S, γεωγραφικό μήκος: 047-29E, υψόμετρο: 1279 μ

Παρών καιρός

Η αναφορά έγινε 8 λεπτά πριν, στις 00:00 UTC
Άνεμος 2 kt από μεταβλητές κατευθύνσεις
Θερμοκρασία 9°C
Υγρασία 100%
Πίεση 1026 hPa
Ορατότητα 10 χλμ και άνω
Λίγα νέφη σε ύψος 2000 πόδια

METAR: FMMI 170000Z VRB02KT 9999 FEW020 09/09 Q1026 NOSIG

Χρόνος: 03:08 (00:08 UTC)

Πρόγνωση Καιρού

Η αναφορά έγινε 1 ώρα και 8 λεπτά πριν, στις 23:00 UTC
Η πρόγνωση ισχύει από τις 17 στις 00 UTC έως τις 18 στις 06 UTC
Άνεμος 8 kt από Α/NA
Ορατότητα 10 χλμ και άνω
Λίγα νέφη σε ύψος 1600 πόδια
Διάσπαρτα νέφη σε ύψος 2000 πόδια

TAF: FMMI 162300Z 1700/1806 12008KT 9999 FEW016 SCT020

Μετεωρολογικές αναφορές και προγνώσεις για περισσότερα από 4000 αεροδρόμια (δελτία METAR και TAF).

Οι διαθέσιμοι σταθμοί απεικονίζονται στο χάρτη με κίτρινες και κόκκινες κουκκίδες.

Μετακινήστε το ποντίκι πάνω από τις κουκκίδες για να δείτε το όνομα του σταθμού.

Στη συνέχεια, κάντε κλικ για να δείτε τις μετεωρολογικές αναφορές και τις προγνώσεις καιρού.

Για να αλλάξετε το χάρτη: κάντε κλικ στα πράσινα κουμπιά με τον μαύρο σταυρό για να ζουμάρετε, στο πράσινο κουμπί με την παύλα για να αφαιρέσετε το ζουμ ή στα πράσινα βέλη για να αντιπαραβάλλετε χάρτες.


METAR-TAF: